createdAt,value
2019-01-27T00:01:21.098Z,94.90
2019-01-27T00:04:26.197Z,94.80
2019-01-27T00:07:31.286Z,94.70
2019-01-27T00:10:36.511Z,94.70
2019-01-27T00:13:41.538Z,94.70
2019-01-27T00:16:46.652Z,94.60
2019-01-27T00:19:51.755Z,94.60
2019-01-27T00:22:56.868Z,94.50
2019-01-27T00:26:01.883Z,94.40
2019-01-27T00:29:07.003Z,94.50
2019-01-27T00:32:12.106Z,94.50
2019-01-27T00:35:17.222Z,94.40
2019-01-27T00:38:22.352Z,94.40
2019-01-27T00:41:27.495Z,94.40
2019-01-27T00:44:32.567Z,94.50
2019-01-27T00:47:37.678Z,94.40
2019-01-27T00:50:42.795Z,94.30
2019-01-27T00:53:47.851Z,94.30
2019-01-27T00:56:52.946Z,94.20
2019-01-27T00:59:58.056Z,94.30
2019-01-27T01:03:03.163Z,94.30
2019-01-27T01:06:08.376Z,94.20
2019-01-27T01:09:13.616Z,94.20
2019-01-27T01:12:18.663Z,94.20
2019-01-27T01:15:23.759Z,94.20
2019-01-27T01:18:28.916Z,94.10
2019-01-27T01:21:34.030Z,94.10
2019-01-27T01:24:39.151Z,94.10
2019-01-27T01:27:44.566Z,94.10
2019-01-27T01:30:49.763Z,94.00
2019-01-27T01:33:54.871Z,93.90
2019-01-27T01:37:00.191Z,93.90
2019-01-27T01:40:06.852Z,93.80
2019-01-27T01:43:12.014Z,93.80
2019-01-27T01:46:17.330Z,93.90
2019-01-27T01:49:22.379Z,94.50
2019-01-27T01:52:27.483Z,94.30
2019-01-27T01:55:32.599Z,94.30
2019-01-27T01:58:37.633Z,94.20
2019-01-27T02:01:42.894Z,94.10
2019-01-27T02:04:48.005Z,94.10
2019-01-27T02:07:53.130Z,94.10
2019-01-27T02:10:58.335Z,94.10
2019-01-27T02:14:03.456Z,94.20
2019-01-27T02:17:08.557Z,94.20
2019-01-27T02:20:13.627Z,94.10
2019-01-27T02:23:18.670Z,94.10
2019-01-27T02:26:23.801Z,94.00
2019-01-27T02:29:28.844Z,94.40
2019-01-27T02:32:33.889Z,94.00
2019-01-27T02:35:39.270Z,93.90
2019-01-27T02:38:44.374Z,94.00
2019-01-27T02:41:49.472Z,94.00
2019-01-27T02:44:54.662Z,94.10
2019-01-27T02:47:59.769Z,94.30
2019-01-27T02:51:05.106Z,94.30
2019-01-27T02:54:10.202Z,94.20
2019-01-27T02:57:15.491Z,94.20
2019-01-27T03:00:20.619Z,94.50
2019-01-27T03:03:25.666Z,94.10
2019-01-27T03:06:38.544Z,94.00
2019-01-27T03:09:44.723Z,94.00
2019-01-27T03:12:49.761Z,93.90
2019-01-27T03:15:54.887Z,94.00
2019-01-27T03:18:59.974Z,93.80
2019-01-27T03:22:05.412Z,93.80
2019-01-27T03:25:11.407Z,93.80
2019-01-27T03:28:16.523Z,93.70
2019-01-27T03:31:23.520Z,93.60
2019-01-27T03:34:28.473Z,93.60
2019-01-27T03:37:33.579Z,93.50
2019-01-27T03:40:38.715Z,93.50
2019-01-27T03:43:43.819Z,93.50
2019-01-27T03:46:48.884Z,93.50
2019-01-27T03:49:53.905Z,93.50
2019-01-27T03:52:58.994Z,93.50
2019-01-27T03:56:04.635Z,93.40
2019-01-27T03:59:09.998Z,93.30
2019-01-27T04:02:15.106Z,93.30
2019-01-27T04:05:20.731Z,93.30
2019-01-27T04:08:25.864Z,93.60
2019-01-27T04:11:31.003Z,93.50
2019-01-27T04:14:36.119Z,93.10
2019-01-27T04:17:41.248Z,93.10
2019-01-27T04:20:46.368Z,93.00
2019-01-27T04:23:51.495Z,92.90
2019-01-27T04:26:56.518Z,92.90
2019-01-27T04:30:01.634Z,92.80
2019-01-27T04:33:06.727Z,92.80
2019-01-27T04:36:11.838Z,92.70
2019-01-27T04:39:16.949Z,92.60
2019-01-27T04:42:21.999Z,92.50
2019-01-27T04:45:36.982Z,92.80
2019-01-27T04:48:42.111Z,92.40
2019-01-27T04:51:47.208Z,92.40
2019-01-27T04:54:52.277Z,92.60
2019-01-27T04:57:57.378Z,92.60
2019-01-27T05:01:02.559Z,92.20
2019-01-27T05:04:23.099Z,92.20
2019-01-27T05:07:28.206Z,92.30
2019-01-27T05:10:33.306Z,92.20
2019-01-27T05:13:38.358Z,92.20
2019-01-27T05:16:43.368Z,92.20
2019-01-27T05:19:48.409Z,92.40
2019-01-27T05:22:53.455Z,92.10
2019-01-27T05:25:58.511Z,92.00
2019-01-27T05:29:03.615Z,92.00
2019-01-27T05:32:08.725Z,91.90
2019-01-27T05:35:13.839Z,91.90
2019-01-27T05:38:18.956Z,92.00
2019-01-27T05:41:24.078Z,92.00
2019-01-27T05:44:29.275Z,91.90
2019-01-27T05:47:34.301Z,92.10
2019-01-27T05:50:39.403Z,91.70
2019-01-27T05:53:44.421Z,91.60
2019-01-27T05:56:56.308Z,91.60
2019-01-27T05:59:56.244Z,91.60
2019-01-27T06:03:01.443Z,91.60
2019-01-27T06:06:06.513Z,91.50
2019-01-27T06:09:11.636Z,91.40
2019-01-27T06:12:16.962Z,91.90
2019-01-27T06:15:22.068Z,91.70
2019-01-27T06:18:27.083Z,92.00
2019-01-27T06:21:32.258Z,91.60
2019-01-27T06:24:37.360Z,91.60
2019-01-27T06:27:42.477Z,91.60
2019-01-27T06:30:47.411Z,91.60
2019-01-27T06:34:05.274Z,91.50
2019-01-27T06:37:10.351Z,91.50
2019-01-27T06:40:15.476Z,91.40
2019-01-27T06:43:20.491Z,91.40
2019-01-27T06:46:25.623Z,91.40
2019-01-27T06:49:30.640Z,91.40
2019-01-27T06:52:35.741Z,91.30
2019-01-27T06:55:40.750Z,91.30
2019-01-27T06:59:10.165Z,91.30
2019-01-27T07:02:29.459Z,91.40
2019-01-27T07:05:48.568Z,91.50
2019-01-27T07:09:11.412Z,91.60
2019-01-27T07:12:25.203Z,91.70
2019-01-27T07:15:42.743Z,91.80
2019-01-27T07:19:09.675Z,91.80
2019-01-27T07:22:33.790Z,91.90
2019-01-27T07:25:48.907Z,91.90
2019-01-27T07:29:15.682Z,92.00
2019-01-27T07:32:38.639Z,92.10
2019-01-27T07:35:50.091Z,92.10
2019-01-27T07:39:20.040Z,92.10
2019-01-27T07:42:33.068Z,92.20
2019-01-27T07:45:43.777Z,92.20
2019-01-27T07:49:00.664Z,92.20
2019-01-27T07:52:24.950Z,92.30
2019-01-27T07:55:47.604Z,92.30
2019-01-27T07:59:07.937Z,92.60
2019-01-27T08:02:30.443Z,92.30
2019-01-27T08:05:54.571Z,92.30
2019-01-27T08:09:17.398Z,92.40
2019-01-27T08:12:50.765Z,92.50
2019-01-27T08:16:03.591Z,92.60
2019-01-27T08:19:13.956Z,92.70
2019-01-27T08:22:28.207Z,92.80
2019-01-27T08:25:47.028Z,92.90
2019-01-27T08:28:57.339Z,92.90
2019-01-27T08:32:21.453Z,92.90
2019-01-27T08:35:44.273Z,92.80
2019-01-27T08:39:06.844Z,92.80
2019-01-27T08:42:34.726Z,92.90
2019-01-27T08:45:58.912Z,92.90
2019-01-27T08:49:03.952Z,92.90
2019-01-27T08:52:09.147Z,92.90
2019-01-27T08:55:14.948Z,92.70
2019-01-27T08:58:20.035Z,92.70
2019-01-27T09:01:38.227Z,92.60
2019-01-27T09:04:57.011Z,92.50
2019-01-27T09:08:22.484Z,92.50
2019-01-27T09:12:04.576Z,92.50
2019-01-27T09:15:29.215Z,92.50
2019-01-27T09:18:49.032Z,92.40
2019-01-27T09:22:22.041Z,92.20
2019-01-27T09:25:44.535Z,92.10
2019-01-27T09:29:12.135Z,91.70
2019-01-27T09:32:27.472Z,91.50
2019-01-27T09:35:45.930Z,91.40
2019-01-27T09:39:08.877Z,91.20
2019-01-27T09:42:28.740Z,91.10
2019-01-27T09:46:05.558Z,91.20
2019-01-27T09:49:19.188Z,90.80
2019-01-27T09:52:46.188Z,90.80
2019-01-27T09:56:10.510Z,90.60
2019-01-27T09:59:33.033Z,90.60
2019-01-27T10:03:04.207Z,90.70
2019-01-27T10:06:25.107Z,90.90
2019-01-27T10:10:04.454Z,90.60
2019-01-27T10:13:24.767Z,90.40
2019-01-27T10:16:35.760Z,90.40
2019-01-27T10:19:47.504Z,90.20
2019-01-27T10:23:17.835Z,90.10
2019-01-27T10:26:39.952Z,90.00
2019-01-27T10:30:10.050Z,89.70
2019-01-27T10:33:32.576Z,89.20
2019-01-27T10:36:44.432Z,88.50
2019-01-27T10:39:56.519Z,88.30
2019-01-27T10:43:29.433Z,87.90
2019-01-27T10:46:44.966Z,87.50
2019-01-27T10:50:17.906Z,87.40
2019-01-27T10:53:42.062Z,87.00
2019-01-27T10:57:21.329Z,86.90
2019-01-27T11:00:57.242Z,87.30
2019-01-27T11:04:17.374Z,87.40
2019-01-27T11:07:40.326Z,87.10
2019-01-27T11:10:57.437Z,86.80
2019-01-27T11:14:39.757Z,86.80
2019-01-27T11:18:01.730Z,86.80
2019-01-27T11:21:28.687Z,86.80
2019-01-27T11:24:52.793Z,87.10
2019-01-27T11:28:14.067Z,86.90
2019-01-27T11:31:47.417Z,86.90
2019-01-27T11:35:07.422Z,86.50
2019-01-27T11:38:39.338Z,86.30
2019-01-27T11:42:12.419Z,86.20
2019-01-27T11:45:45.454Z,85.70
2019-01-27T11:48:55.023Z,85.40
2019-01-27T11:52:07.018Z,85.50
2019-01-27T11:55:12.118Z,85.90
2019-01-27T11:58:17.244Z,86.20
2019-01-27T12:01:22.407Z,86.30
2019-01-27T12:04:27.528Z,85.80
2019-01-27T12:07:32.624Z,85.40
2019-01-27T12:10:37.718Z,84.60
2019-01-27T12:13:42.750Z,84.20
2019-01-27T12:16:47.826Z,83.90
2019-01-27T12:19:52.914Z,83.80
2019-01-27T12:22:58.275Z,83.40
2019-01-27T12:26:03.376Z,82.90
2019-01-27T12:29:08.418Z,83.40
2019-01-27T12:32:13.523Z,81.60
2019-01-27T12:35:18.625Z,80.80
2019-01-27T12:38:23.722Z,80.70
2019-01-27T12:41:28.810Z,81.10
2019-01-27T12:44:33.938Z,80.70
2019-01-27T12:47:39.019Z,80.60
2019-01-27T12:50:44.127Z,80.40
2019-01-27T12:53:49.152Z,80.60
2019-01-27T12:56:54.259Z,80.50
2019-01-27T12:59:59.351Z,80.40
2019-01-27T13:03:04.567Z,80.50
2019-01-27T13:06:09.667Z,80.30
2019-01-27T13:09:14.715Z,80.50
2019-01-27T13:12:19.744Z,80.70
2019-01-27T13:15:24.839Z,80.40
2019-01-27T13:18:29.978Z,80.90
2019-01-27T13:21:35.139Z,80.30
2019-01-27T13:24:40.571Z,80.30
2019-01-27T13:27:45.658Z,80.10
2019-01-27T13:30:50.840Z,79.50
2019-01-27T13:33:55.925Z,79.10
2019-01-27T13:37:01.021Z,79.00
2019-01-27T13:40:09.004Z,79.40
2019-01-27T13:43:14.162Z,79.90
2019-01-27T13:46:19.453Z,80.40
2019-01-27T13:49:24.403Z,80.70
2019-01-27T13:52:29.504Z,80.60
2019-01-27T13:55:35.476Z,80.20
2019-01-27T13:58:40.594Z,80.10
2019-01-27T14:01:45.692Z,80.10
2019-01-27T14:04:50.806Z,79.90
2019-01-27T14:07:55.914Z,79.60
2019-01-27T14:11:00.858Z,78.60
2019-01-27T14:14:05.968Z,78.30
2019-01-27T14:17:11.059Z,77.80
2019-01-27T14:20:16.983Z,77.90
2019-01-27T14:23:22.013Z,77.40
2019-01-27T14:26:27.138Z,77.50
2019-01-27T14:29:32.114Z,78.60
2019-01-27T14:32:37.201Z,78.00
2019-01-27T14:35:42.230Z,78.20
2019-01-27T14:38:47.275Z,78.30
2019-01-27T14:41:52.382Z,78.30
2019-01-27T14:44:57.468Z,79.20
2019-01-27T14:48:02.575Z,78.40
2019-01-27T14:51:07.615Z,78.30
2019-01-27T14:54:12.666Z,78.30
2019-01-27T14:57:17.766Z,78.40
2019-01-27T15:00:25.527Z,78.60
2019-01-27T15:03:30.699Z,78.50
2019-01-27T15:06:36.038Z,78.50
2019-01-27T15:09:41.137Z,78.80
2019-01-27T15:12:46.264Z,78.90
2019-01-27T15:15:51.407Z,79.00
2019-01-27T15:18:56.435Z,79.30
2019-01-27T15:22:01.474Z,79.40
2019-01-27T15:25:07.427Z,79.50
2019-01-27T15:28:12.551Z,79.60
2019-01-27T15:31:17.860Z,79.80
2019-01-27T15:34:22.795Z,79.80
2019-01-27T15:37:27.886Z,79.70
2019-01-27T15:40:33.048Z,79.60
2019-01-27T15:43:38.160Z,79.40
2019-01-27T15:46:43.267Z,79.30
2019-01-27T15:49:48.278Z,79.30
2019-01-27T15:52:53.393Z,79.30
2019-01-27T15:55:58.457Z,79.40
2019-01-27T15:59:03.592Z,79.50
2019-01-27T16:02:08.750Z,79.60
2019-01-27T16:05:15.678Z,79.60
2019-01-27T16:08:20.776Z,79.90
2019-01-27T16:11:25.863Z,80.00
2019-01-27T16:14:30.959Z,80.10
2019-01-27T16:17:36.052Z,81.20
2019-01-27T16:20:41.164Z,81.20
2019-01-27T16:23:52.007Z,80.60
2019-01-27T16:26:57.023Z,81.60
2019-01-27T16:30:26.181Z,81.70
2019-01-27T16:33:40.059Z,81.00
2019-01-27T16:36:45.159Z,81.00
2019-01-27T16:39:50.472Z,81.00
2019-01-27T16:42:55.564Z,81.10
2019-01-27T16:46:00.613Z,81.00
2019-01-27T16:49:06.014Z,80.90
2019-01-27T16:52:11.046Z,81.10
2019-01-27T16:55:16.413Z,82.00
2019-01-27T16:58:21.591Z,81.20
2019-01-27T17:01:26.715Z,81.40
2019-01-27T17:04:31.810Z,81.50
2019-01-27T17:07:36.907Z,81.70
2019-01-27T17:10:41.999Z,82.00
2019-01-27T17:13:47.102Z,82.20
2019-01-27T17:16:52.190Z,82.50
2019-01-27T17:20:02.439Z,82.80
2019-01-27T17:23:04.115Z,83.00
2019-01-27T17:26:09.251Z,83.20
2019-01-27T17:29:14.359Z,83.50
2019-01-27T17:32:19.431Z,83.60
2019-01-27T17:35:24.848Z,83.60
2019-01-27T17:38:29.927Z,83.40
2019-01-27T17:41:35.028Z,83.40
2019-01-27T17:44:40.061Z,83.30
2019-01-27T17:47:45.248Z,83.30
2019-01-27T17:50:50.355Z,83.40
2019-01-27T17:53:58.773Z,84.40
2019-01-27T17:57:13.805Z,84.00
2019-01-27T18:00:37.958Z,84.40
2019-01-27T18:03:52.038Z,84.60
2019-01-27T18:07:16.240Z,85.00
2019-01-27T18:10:43.745Z,85.30
2019-01-27T18:13:57.114Z,86.30
2019-01-27T18:17:02.282Z,85.80
2019-01-27T18:20:11.957Z,86.10
2019-01-27T18:23:17.209Z,86.50
2019-01-27T18:26:22.295Z,86.80
2019-01-27T18:29:27.413Z,87.00
2019-01-27T18:32:32.604Z,87.20
2019-01-27T18:35:37.749Z,87.50
2019-01-27T18:38:42.921Z,87.70
2019-01-27T18:41:48.090Z,87.60
2019-01-27T18:44:53.149Z,87.60
2019-01-27T18:47:58.304Z,87.40
2019-01-27T18:51:03.416Z,87.40
2019-01-27T18:54:25.937Z,87.40
2019-01-27T18:57:37.431Z,87.40
2019-01-27T19:01:07.532Z,87.60
2019-01-27T19:04:27.085Z,87.60
2019-01-27T19:07:43.892Z,87.60
2019-01-27T19:10:57.975Z,87.80
2019-01-27T19:14:37.176Z,87.90
2019-01-27T19:18:07.491Z,88.00
2019-01-27T19:21:30.074Z,88.00
2019-01-27T19:24:58.427Z,88.00
2019-01-27T19:28:31.712Z,88.20
2019-01-27T19:31:58.652Z,88.20
2019-01-27T19:35:13.851Z,88.10
2019-01-27T19:38:36.683Z,88.30
2019-01-27T19:42:00.695Z,88.50
2019-01-27T19:45:15.669Z,88.50
2019-01-27T19:48:48.833Z,88.50
2019-01-27T19:52:06.363Z,88.50
2019-01-27T19:55:30.445Z,88.50
2019-01-27T19:58:52.233Z,88.50
2019-01-27T20:02:22.601Z,88.60
2019-01-27T20:05:34.033Z,88.80
2019-01-27T20:08:56.559Z,88.40
2019-01-27T20:12:20.748Z,88.20
2019-01-27T20:15:43.208Z,88.10
2019-01-27T20:19:06.058Z,88.30
2019-01-27T20:22:20.905Z,88.40
2019-01-27T20:25:55.880Z,88.60
2019-01-27T20:29:38.147Z,88.70
2019-01-27T20:33:01.730Z,88.80
2019-01-27T20:36:26.802Z,88.80
2019-01-27T20:39:54.012Z,88.70
2019-01-27T20:43:22.302Z,89.40
2019-01-27T20:46:49.471Z,88.60
2019-01-27T20:50:16.830Z,88.70
2019-01-27T20:53:54.171Z,88.70
2019-01-27T20:57:27.136Z,88.80
2019-01-27T21:00:52.020Z,88.80
2019-01-27T21:04:14.254Z,88.80
2019-01-27T21:07:40.014Z,88.70
2019-01-27T21:11:16.617Z,88.90
2019-01-27T21:14:46.666Z,89.30
2019-01-27T21:18:19.669Z,89.50
2019-01-27T21:21:24.688Z,89.60
2019-01-27T21:24:31.332Z,90.10
2019-01-27T21:27:36.664Z,90.00
2019-01-27T21:30:42.192Z,90.10
2019-01-27T21:33:48.409Z,90.10
2019-01-27T21:36:53.732Z,90.20
2019-01-27T21:39:58.936Z,90.30
2019-01-27T21:43:04.277Z,90.40
2019-01-27T21:46:09.971Z,90.50
2019-01-27T21:49:15.418Z,90.50
2019-01-27T21:52:21.206Z,91.00
2019-01-27T21:55:26.963Z,90.80
2019-01-27T21:58:32.009Z,90.90
2019-01-27T22:01:37.112Z,90.90
2019-01-27T22:04:42.151Z,91.10
2019-01-27T22:07:47.276Z,91.10
2019-01-27T22:10:52.333Z,91.10
2019-01-27T22:13:57.355Z,91.20
2019-01-27T22:17:02.508Z,91.30
2019-01-27T22:20:08.990Z,91.50
2019-01-27T22:23:14.114Z,91.70
2019-01-27T22:26:19.104Z,91.80
2019-01-27T22:29:24.219Z,91.90
2019-01-27T22:32:29.335Z,92.10
2019-01-27T22:35:34.350Z,92.40
2019-01-27T22:38:39.388Z,92.60
2019-01-27T22:41:44.403Z,93.00
2019-01-27T22:44:49.458Z,93.40
2019-01-27T22:47:54.504Z,93.60
2019-01-27T22:50:59.547Z,93.80
2019-01-27T22:54:05.020Z,93.80
2019-01-27T22:57:10.086Z,93.90
2019-01-27T23:00:26.115Z,94.00
2019-01-27T23:03:36.901Z,94.10
2019-01-27T23:06:41.915Z,94.30
2019-01-27T23:09:46.970Z,94.40
2019-01-27T23:12:52.079Z,94.60
2019-01-27T23:15:57.297Z,94.80
2019-01-27T23:19:02.343Z,95.00
2019-01-27T23:22:07.390Z,95.30
2019-01-27T23:25:12.544Z,95.40
2019-01-27T23:28:17.647Z,95.60
2019-01-27T23:31:22.775Z,95.20
2019-01-27T23:34:27.835Z,94.90
2019-01-27T23:37:32.944Z,94.80
2019-01-27T23:40:38.053Z,94.60
2019-01-27T23:43:43.151Z,94.40
2019-01-27T23:46:48.262Z,94.50
2019-01-27T23:49:53.208Z,94.20
2019-01-27T23:53:00.243Z,94.10
2019-01-27T23:56:05.363Z,94.40
2019-01-27T23:59:10.467Z,94.00
